x

Cedar Key, Fl (cdrf1) Weather Station

4:00am - Tue 26th Jul 2016 All times are EDT. -4 hours from GMT.

  • Wind
    5mph, 7mph gusts
  • Air Temp 84°f
  • Sea Pressure 1017.4mb
  • Cedar Key, Fl
  • Cedar Key, Fl

More Historic Weather Station data

Upgrade to MSW Pro to gain access to the past 30 days of data for over 8000 Wavebouys and Weather Stations around the globe.

Join Pro

Comparision Forecast

View Surf forecast
   
Tue 07/26 4:00am 5 7 mph 1017.4mb 84f
3:00am 7 10 mph 1017.9mb 84f
2:00am 6 8 mph 1018.4mb 84f
1:00am 7 9 mph 1018.3mb 84f
12:00am 6 8 mph 1018.6mb 84f
Mon 07/25 11:00pm 7 9 mph 1018.2mb 85f
10:00pm 7 9 mph 1017.8mb 85f
9:00pm 7 8 mph 1017.5mb 85f
8:00pm 9 13 mph 1017.1mb 85f
7:00pm 8 10 mph 1016.8mb 87f
6:00pm 5 8 mph 1016.7mb 87f
5:00pm 10 14 mph 1016.5mb 87f
4:00pm 8 11 mph 1017mb 86f
3:00pm 10 13 mph 1017.6mb 85f
2:00pm 9 11 mph 1018mb 84f
1:00pm 10 11 mph 1018.5mb 84f
12:00pm 10 11 mph 1018.9mb 83f
11:00am 10 13 mph 1018.7mb 82f
10:00am 11 14 mph 1018.5mb 81f
9:00am 10 13 mph 1018.5mb 82f
8:00am 9 11 mph 1017.8mb 82f
7:00am 11 13 mph 1017.4mb 81f
6:00am 9 10 mph 1017mb 80f
5:00am 11 13 mph 1016.8mb 81f
4:00am 11 15 mph 1016.8mb 81f
3:00am 11 13 mph 1017mb 81f
2:00am 9 10 mph 1017.6mb 82f
1:00am 11
mph
1018mb 81f
12:00am 7 8 mph 1018.1mb 83f
Sun 07/24 11:00pm 15 17 mph 1018.2mb 82f
10:00pm 13 15 mph 1017.2mb 83f
9:00pm 7 9 mph 1017.1mb 81f
8:00pm 9 11 mph 1016.6mb 81f
7:00pm 11 14 mph 1016.5mb 86f
6:00pm 8 14 mph 1016.1mb 86f
5:00pm 7 10 mph 1015.9mb 86f
4:00pm 8 10 mph 1016.2mb 86f
3:00pm 7 9 mph 1016.8mb 87f
2:00pm 7 9 mph 1017.5mb 86f
1:00pm 10 13 mph 1018.1mb 84f
12:00pm 9 11 mph 1018.2mb 84f
11:00am 10 11 mph 1017.9mb 84f
10:00am 8
mph
1017.7mb 83f
9:00am 5 7 mph 1017.8mb 84f
8:00am 5 6 mph 1017.1mb 84f
7:00am 8
mph
1016.6mb 83f
6:00am 6
mph
1016.3mb 83f
5:00am 11 13 mph 1016.2mb 82f
4:00am  -  mph 1016.2mb 79f
3:00am 7 9 mph 1017.1mb 78f
2:00am 7 9 mph 1017mb 82f
1:00am 5 6 mph 1017.2mb 85f
12:00am 3 6 mph 1017.3mb 85f
Sat 07/23 11:00pm 6 7 mph 1017.1mb 85f
10:00pm 6 8 mph 1016.3mb 85f
9:00pm 6 10 mph 1015.7mb 85f
8:00pm 7 10 mph 1015.7mb 85f
7:00pm 9 11 mph 1015.4mb 86f
6:00pm 6 9 mph 1015.3mb 87f
5:00pm 8 13 mph 1015.9mb 87f
4:00pm 8 10 mph 1016.3mb 87f
3:00pm 8 10 mph 1016.8mb 86f
2:00pm 8 9 mph 1017.4mb 85f
1:00pm 8 9 mph 1017.9mb 84f
12:00pm 8 9 mph 1018.1mb 83f
11:00am 7 8 mph 1017.7mb 81f
10:00am 7 8 mph 1017.7mb 81f
9:00am 8 9 mph 1017.4mb 81f
8:00am 6 7 mph 1016.7mb 81f
7:00am 5 7 mph 1016.7mb 80f
6:00am 5
mph
1016.8mb 79f
5:00am 6 7 mph 1016.5mb 79f
4:00am 5 6 mph 1016.4mb 79f
3:00am 3 5 mph 1017mb 78f
2:00am 3 6 mph 1017.4mb 78f
1:00am 2 3 mph 1017.6mb 80f
12:00am 8 10 mph 1018.2mb 79f
Fri 07/22 11:00pm 20 28 mph 1018.5mb 81f
10:00pm 7 8 mph 1017.5mb 84f
9:00pm 2 3 mph 1017.6mb 85f
8:00pm 2 3 mph 1017.3mb 85f
7:00pm 3 5 mph 1016.8mb 85f
6:00pm 2
mph
1017.5mb 84f
5:00pm 1 2 mph 1017.5mb 85f
4:00pm 9 10 mph 1018.5mb 82f
3:00pm 3
mph
1018.7mb 86f
2:00pm 5 6 mph 1019.9mb 86f
1:00pm 3 6 mph 1019.8mb 85f
12:00pm 7 8 mph 1020.1mb 84f
11:00am 6 7 mph 1019.8mb 83f
10:00am 8 9 mph 1019.4mb 81f